createdAt,value
2017-08-14T00:00:11.878Z,-4.12
2017-08-14T00:01:06.299Z,-4.12
2017-08-14T00:02:00.437Z,-4.12
2017-08-14T00:03:00.257Z,-4.12
2017-08-14T00:03:55.714Z,-4.12
2017-08-14T00:05:01.543Z,-4.12
2017-08-14T00:05:56.386Z,-4.12
2017-08-14T00:06:50.476Z,-4.12
2017-08-14T00:07:50.511Z,-4.12
2017-08-14T00:08:56.543Z,-4.12
2017-08-14T00:09:51.804Z,-4.11
2017-08-14T00:10:46.704Z,-4.11
2017-08-14T00:11:46.588Z,-4.11
2017-08-14T00:12:41.828Z,-4.11
2017-08-14T00:13:36.653Z,-4.12
2017-08-14T00:14:37.075Z,-4.12
2017-08-14T00:15:31.666Z,-4.12
2017-08-14T00:16:26.847Z,-4.12
2017-08-14T00:17:27.783Z,-4.12
2017-08-14T00:18:27.743Z,-4.12
2017-08-14T00:19:27.873Z,-4.12
2017-08-14T00:20:28.121Z,-4.12
2017-08-14T00:21:28.942Z,-4.12
2017-08-14T00:22:30.008Z,-4.12
2017-08-14T00:23:24.247Z,-4.12
2017-08-14T00:24:23.983Z,-4.12
2017-08-14T00:25:19.087Z,-4.12
2017-08-14T00:26:14.235Z,-4.12
2017-08-14T00:27:14.107Z,-4.12
2017-08-14T00:28:09.265Z,-4.12
2017-08-14T00:29:04.138Z,-4.12
2017-08-14T00:30:04.522Z,-4.12
2017-08-14T00:30:59.351Z,-4.12
2017-08-14T00:31:54.471Z,-4.12
2017-08-14T00:32:55.345Z,-4.12
2017-08-14T00:33:55.421Z,-4.12
2017-08-14T00:34:55.758Z,-4.12
2017-08-14T00:35:50.474Z,-4.12
2017-08-14T00:36:50.434Z,-4.12
2017-08-14T00:37:56.750Z,-4.12
2017-08-14T00:38:51.556Z,-4.12
2017-08-14T00:39:51.842Z,-4.12
2017-08-14T00:40:46.831Z,-4.12
2017-08-14T00:41:41.844Z,-4.12
2017-08-14T00:42:41.950Z,-4.12
2017-08-14T00:43:36.958Z,-4.12
2017-08-14T00:44:31.960Z,-4.12
2017-08-14T00:45:31.932Z,-4.12
2017-08-14T00:46:27.142Z,-4.12
2017-08-14T00:47:21.801Z,-4.12
2017-08-14T00:48:22.881Z,-4.12
2017-08-14T00:49:23.195Z,-4.12
2017-08-14T00:50:23.153Z,-4.12
2017-08-14T00:51:22.996Z,-4.12
2017-08-14T00:52:23.289Z,-4.12
2017-08-14T00:53:16.992Z,-4.12
2017-08-14T00:54:11.989Z,-4.12
2017-08-14T00:55:12.349Z,-4.12
2017-08-14T00:56:12.304Z,-4.12
2017-08-14T00:57:07.541Z,-4.12
2017-08-14T00:58:07.470Z,-4.12
2017-08-14T00:59:07.459Z,-4.12
2017-08-14T01:00:01.485Z,-4.12
2017-08-14T01:01:01.559Z,-4.12
2017-08-14T01:01:56.580Z,-4.12
2017-08-14T01:02:56.679Z,-4.12
2017-08-14T01:03:56.626Z,-4.12
2017-08-14T01:04:56.703Z,-4.12
2017-08-14T01:05:56.761Z,-4.12
2017-08-14T01:06:56.799Z,-4.12
2017-08-14T01:07:44.763Z,-4.12
2017-08-14T01:08:33.799Z,-4.12
2017-08-14T01:09:27.819Z,-4.12
2017-08-14T01:10:27.922Z,-4.12
2017-08-14T01:11:27.888Z,-4.12
2017-08-14T01:12:17.034Z,-4.12
2017-08-14T01:13:12.051Z,-4.12
2017-08-14T01:14:06.027Z,-4.12
2017-08-14T01:15:06.155Z,-4.12
2017-08-14T01:16:06.096Z,-4.12
2017-08-14T01:17:12.112Z,-4.12
2017-08-14T01:18:07.196Z,-4.12
2017-08-14T01:19:07.403Z,-4.12
2017-08-14T01:20:01.286Z,-4.12
2017-08-14T01:21:01.416Z,-4.12
2017-08-14T01:22:01.307Z,-4.12
2017-08-14T01:22:56.309Z,-4.12
2017-08-14T01:23:56.074Z,-4.12
2017-08-14T01:24:50.142Z,-4.12
2017-08-14T01:25:45.539Z,-4.12
2017-08-14T01:26:39.155Z,-4.12
2017-08-14T01:27:39.183Z,-4.12
2017-08-14T01:28:40.340Z,-4.12
2017-08-14T01:29:40.658Z,-4.12
2017-08-14T01:30:34.356Z,-4.12
2017-08-14T01:31:23.505Z,-4.12
2017-08-14T01:32:17.395Z,-4.12
2017-08-14T01:33:06.461Z,-4.12
2017-08-14T01:34:01.567Z,-4.12
2017-08-14T01:34:56.893Z,-4.12
2017-08-14T01:35:45.105Z,-4.12
2017-08-14T01:36:38.661Z,-4.12
2017-08-14T01:37:33.763Z,-4.12
2017-08-14T01:38:27.635Z,-4.12
2017-08-14T01:39:22.638Z,-4.12
2017-08-14T01:40:22.689Z,-4.12
2017-08-14T01:41:17.769Z,-4.12
2017-08-14T01:42:17.847Z,-4.12
2017-08-14T01:43:12.997Z,-4.12
2017-08-14T01:44:07.096Z,-4.12
2017-08-14T01:44:56.313Z,-4.12
2017-08-14T01:45:45.337Z,-4.12
2017-08-14T01:46:34.016Z,-4.12
2017-08-14T01:47:23.091Z,-4.12
2017-08-14T01:48:17.032Z,-4.12
2017-08-14T01:49:11.079Z,-4.12
2017-08-14T01:50:17.323Z,-4.12
2017-08-14T01:51:05.169Z,-4.12
2017-08-14T01:51:59.318Z,-4.12
2017-08-14T01:52:48.218Z,-4.12
2017-08-14T01:53:48.285Z,-4.12
2017-08-14T01:54:43.238Z,-4.12
2017-08-14T01:55:32.395Z,-4.12
2017-08-14T01:56:26.395Z,-4.12
2017-08-14T01:57:20.478Z,-4.12
2017-08-14T01:58:21.483Z,-4.12
2017-08-14T01:59:15.575Z,-4.12
2017-08-14T02:00:09.889Z,-4.12
2017-08-14T02:01:03.657Z,-4.12
2017-08-14T02:01:58.792Z,-4.12
2017-08-14T02:02:58.909Z,-4.12
2017-08-14T02:03:53.712Z,-4.12
2017-08-14T02:04:53.713Z,-4.12
2017-08-14T02:05:47.979Z,-4.12
2017-08-14T02:06:47.927Z,-4.12
2017-08-14T02:07:42.831Z,-4.12
2017-08-14T02:08:38.127Z,-4.12
2017-08-14T02:09:25.885Z,-4.12
2017-08-14T02:10:20.246Z,-4.12
2017-08-14T02:11:08.979Z,-4.12
2017-08-14T02:11:57.021Z,-4.12
2017-08-14T02:12:46.117Z,-4.12
2017-08-14T02:13:40.245Z,-4.12
2017-08-14T02:14:34.275Z,-4.12
2017-08-14T02:15:28.362Z,-4.12
2017-08-14T02:16:22.177Z,-4.12
2017-08-14T02:17:22.209Z,-4.12
2017-08-14T02:18:11.268Z,-4.12
2017-08-14T02:18:59.592Z,-4.12
2017-08-14T02:19:47.359Z,-4.12
2017-08-14T02:20:36.390Z,-4.12
2017-08-14T02:21:30.467Z,-4.12
2017-08-14T02:22:36.679Z,-4.12
2017-08-14T02:23:36.455Z,-4.12
2017-08-14T02:24:30.755Z,-4.12
2017-08-14T02:25:24.662Z,-4.12
2017-08-14T02:26:19.660Z,-4.12
2017-08-14T02:27:13.710Z,-4.12
2017-08-14T02:28:07.867Z,-4.12
2017-08-14T02:29:02.944Z,-4.12
2017-08-14T02:29:57.150Z,-4.12
2017-08-14T02:30:51.902Z,-4.12
2017-08-14T02:31:46.939Z,-4.12
2017-08-14T02:32:35.789Z,-4.12
2017-08-14T02:33:23.870Z,-4.12
2017-08-14T02:34:13.292Z,-4.12
2017-08-14T02:35:01.097Z,-4.12
2017-08-14T02:35:49.999Z,-4.12
2017-08-14T02:36:50.097Z,-4.12
2017-08-14T02:37:44.513Z,-4.12
2017-08-14T02:38:44.143Z,-4.12
2017-08-14T02:39:39.453Z,-4.12
2017-08-14T02:40:39.180Z,-4.12
2017-08-14T02:41:27.242Z,-4.12
2017-08-14T02:42:21.539Z,-4.12
2017-08-14T02:43:21.354Z,-4.12
2017-08-14T02:44:16.292Z,-4.12
2017-08-14T02:45:11.697Z,-4.12
2017-08-14T02:46:05.781Z,-4.12
2017-08-14T02:46:54.451Z,-4.12
2017-08-14T02:47:42.474Z,-4.12
2017-08-14T02:48:36.583Z,-4.12
2017-08-14T02:49:31.815Z,-4.12
2017-08-14T02:50:25.644Z,-4.12
2017-08-14T02:51:20.857Z,-4.12
2017-08-14T02:52:08.847Z,-4.12
2017-08-14T02:53:02.903Z,-4.12
2017-08-14T02:53:56.917Z,-4.13
2017-08-14T02:54:57.202Z,-4.13
2017-08-14T02:55:56.835Z,-4.13
2017-08-14T02:56:52.084Z,-4.13
2017-08-14T02:57:46.103Z,-4.13
2017-08-14T02:58:46.220Z,-4.13
2017-08-14T02:59:41.274Z,-4.13
2017-08-14T03:00:41.047Z,-4.13
2017-08-14T03:01:35.055Z,-4.13
2017-08-14T03:02:36.322Z,-4.13
2017-08-14T03:03:31.183Z,-4.13
2017-08-14T03:04:31.421Z,-4.13
2017-08-14T03:05:31.294Z,-4.13
2017-08-14T03:06:25.156Z,-4.13
2017-08-14T03:07:19.266Z,-4.13
2017-08-14T03:08:13.282Z,-4.13
2017-08-14T03:09:07.285Z,-4.13
2017-08-14T03:09:56.653Z,-4.13
2017-08-14T03:10:50.587Z,-4.13
2017-08-14T03:11:44.704Z,-4.13
2017-08-14T03:12:32.748Z,-4.13
2017-08-14T03:13:20.816Z,-4.13
2017-08-14T03:14:14.761Z,-4.13
2017-08-14T03:15:09.859Z,-4.13
2017-08-14T03:16:10.828Z,-4.13
2017-08-14T03:17:04.925Z,-4.13
2017-08-14T03:17:53.933Z,-4.13
2017-08-14T03:18:48.031Z,-4.13
2017-08-14T03:19:43.130Z,-4.13
2017-08-14T03:20:43.075Z,-4.13
2017-08-14T03:21:37.019Z,-4.13
2017-08-14T03:22:37.139Z,-4.13
2017-08-14T03:23:32.125Z,-4.13
2017-08-14T03:24:27.183Z,-4.13
2017-08-14T03:25:27.265Z,-4.13
2017-08-14T03:26:22.356Z,-4.13
2017-08-14T03:27:17.023Z,-4.13
2017-08-14T03:28:23.313Z,-4.13
2017-08-14T03:29:17.017Z,-4.13
2017-08-14T03:30:17.585Z,-4.13
2017-08-14T03:31:12.159Z,-4.13
2017-08-14T03:32:00.259Z,-4.13
2017-08-14T03:32:48.245Z,-4.13
2017-08-14T03:33:42.609Z,-4.13
2017-08-14T03:34:31.656Z,-4.13
2017-08-14T03:35:25.336Z,-4.13
2017-08-14T03:36:19.729Z,-4.13
2017-08-14T03:37:07.505Z,-4.13
2017-08-14T03:37:56.475Z,-4.13
2017-08-14T03:38:57.472Z,-4.13
2017-08-14T03:39:57.875Z,-4.13
2017-08-14T03:40:52.913Z,-4.13
2017-08-14T03:41:53.830Z,-4.13
2017-08-14T03:42:48.934Z,-4.13
2017-08-14T03:43:44.000Z,-4.13
2017-08-14T03:44:43.965Z,-4.13
2017-08-14T03:45:38.968Z,-4.13
2017-08-14T03:46:34.073Z,-4.13
2017-08-14T03:47:35.034Z,-4.13
2017-08-14T03:48:24.133Z,-4.13
2017-08-14T03:49:19.226Z,-4.13
2017-08-14T03:50:19.182Z,-4.13
2017-08-14T03:51:13.270Z,-4.13
2017-08-14T03:52:07.342Z,-4.13
2017-08-14T03:52:56.286Z,-4.13
2017-08-14T03:53:51.396Z,-4.13
2017-08-14T03:54:45.351Z,-4.13
2017-08-14T03:55:33.463Z,-4.13
2017-08-14T03:56:21.492Z,-4.13
2017-08-14T03:57:09.606Z,-4.13
2017-08-14T03:57:58.652Z,-4.13
2017-08-14T03:58:46.614Z,-4.13
2017-08-14T03:59:34.710Z,-4.13
2017-08-14T04:00:22.699Z,-4.13
2017-08-14T04:01:17.662Z,-4.13
2017-08-14T04:02:11.832Z,-4.13
2017-08-14T04:02:59.792Z,-4.13
2017-08-14T04:03:47.871Z,-4.13
2017-08-14T04:04:35.926Z,-4.13
2017-08-14T04:05:24.967Z,-4.13
2017-08-14T04:06:19.083Z,-4.13
2017-08-14T04:07:13.066Z,-4.13
2017-08-14T04:08:13.102Z,-4.13
2017-08-14T04:09:07.041Z,-4.13
2017-08-14T04:10:07.098Z,-4.13
2017-08-14T04:11:02.131Z,-4.13
2017-08-14T04:11:56.238Z,-4.13
2017-08-14T04:12:56.330Z,-4.13
2017-08-14T04:13:50.208Z,-4.13
2017-08-14T04:14:51.356Z,-4.13
2017-08-14T04:15:46.369Z,-4.13
2017-08-14T04:16:47.447Z,-4.13
2017-08-14T04:17:35.368Z,-4.13
2017-08-14T04:18:24.589Z,-4.13
2017-08-14T04:19:24.454Z,-4.13
2017-08-14T04:20:19.467Z,-4.13
2017-08-14T04:21:13.544Z,-4.13
2017-08-14T04:22:08.524Z,-4.13
2017-08-14T04:23:08.635Z,-4.13
2017-08-14T04:24:03.657Z,-4.13
2017-08-14T04:25:03.699Z,-4.13
2017-08-14T04:26:03.707Z,-4.13
2017-08-14T04:27:03.813Z,-4.13
2017-08-14T04:27:57.783Z,-4.13
2017-08-14T04:28:51.775Z,-4.13
2017-08-14T04:29:45.918Z,-4.13
2017-08-14T04:30:40.944Z,-4.13
2017-08-14T04:31:28.922Z,-4.13
2017-08-14T04:32:30.035Z,-4.13
2017-08-14T04:33:24.078Z,-4.13
2017-08-14T04:34:12.110Z,-4.13
2017-08-14T04:35:06.143Z,-4.13
2017-08-14T04:36:00.115Z,-4.13
2017-08-14T04:37:01.081Z,-4.13
2017-08-14T04:37:49.187Z,-4.13
2017-08-14T04:38:38.260Z,-4.13
2017-08-14T04:39:33.342Z,-4.13
2017-08-14T04:40:27.327Z,-4.13
2017-08-14T04:41:27.276Z,-4.13
2017-08-14T04:42:27.316Z,-4.13
2017-08-14T04:43:28.345Z,-4.13
2017-08-14T04:44:23.458Z,-4.13
2017-08-14T04:45:17.508Z,-4.13
2017-08-14T04:46:18.450Z,-4.13
2017-08-14T04:47:13.647Z,-4.13
2017-08-14T04:48:13.592Z,-4.13
2017-08-14T04:49:13.508Z,-4.13
2017-08-14T04:50:13.673Z,-4.13
2017-08-14T04:51:13.670Z,-4.13
2017-08-14T04:52:13.668Z,-4.13
2017-08-14T04:53:13.699Z,-4.13
2017-08-14T04:54:13.766Z,-4.13
2017-08-14T04:55:13.911Z,-4.13
2017-08-14T04:56:13.816Z,-4.13
2017-08-14T04:57:14.007Z,-4.13
2017-08-14T04:58:07.855Z,-4.13
2017-08-14T04:59:07.932Z,-4.13
2017-08-14T04:59:57.058Z,-4.13
2017-08-14T05:00:51.036Z,-4.13
2017-08-14T05:01:46.064Z,-4.13
2017-08-14T05:02:47.203Z,-4.12
2017-08-14T05:03:48.180Z,-4.12
2017-08-14T05:04:48.190Z,-4.12
2017-08-14T05:05:48.230Z,-4.12
2017-08-14T05:06:42.301Z,-4.12
2017-08-14T05:07:42.318Z,-4.12
2017-08-14T05:08:37.399Z,-4.12
2017-08-14T05:09:26.370Z,-4.12
2017-08-14T05:10:21.401Z,-4.12
2017-08-14T05:11:16.443Z,-4.12
2017-08-14T05:12:10.509Z,-4.12
2017-08-14T05:13:10.543Z,-4.12
2017-08-14T05:14:04.603Z,-4.12
2017-08-14T05:15:05.651Z,-4.12
2017-08-14T05:15:53.609Z,-4.12
2017-08-14T05:16:42.643Z,-4.12
2017-08-14T05:17:42.668Z,-4.12
2017-08-14T05:18:37.731Z,-4.12
2017-08-14T05:19:31.769Z,-4.12
2017-08-14T05:20:31.821Z,-4.11
2017-08-14T05:21:31.850Z,-4.11
2017-08-14T05:22:31.813Z,-4.11
2017-08-14T05:23:31.937Z,-4.11
2017-08-14T05:24:31.900Z,-4.11
2017-08-14T05:25:25.984Z,-4.11
2017-08-14T05:26:13.987Z,-4.11
2017-08-14T05:27:03.065Z,-4.11
2017-08-14T05:27:58.221Z,-4.11
2017-08-14T05:28:58.209Z,-4.11
2017-08-14T05:29:57.877Z,-4.11
2017-08-14T05:30:52.199Z,-4.11
2017-08-14T05:31:52.133Z,-4.10
2017-08-14T05:32:46.289Z,-4.10
2017-08-14T05:33:46.282Z,-4.10
2017-08-14T05:34:46.276Z,-4.10
2017-08-14T05:35:46.358Z,-4.10
2017-08-14T05:36:41.306Z,-4.10
2017-08-14T05:37:35.146Z,-4.10
2017-08-14T05:38:29.206Z,-4.10
2017-08-14T05:39:29.206Z,-4.09
2017-08-14T05:40:29.451Z,-4.09
2017-08-14T05:41:24.284Z,-4.09
2017-08-14T05:42:18.753Z,-4.09
2017-08-14T05:43:07.535Z,-4.09
2017-08-14T05:44:02.462Z,-4.09
2017-08-14T05:45:02.519Z,-4.09
2017-08-14T05:45:57.562Z,-4.09
2017-08-14T05:46:51.798Z,-4.09
2017-08-14T05:47:51.571Z,-4.09
2017-08-14T05:48:40.831Z,-4.09
2017-08-14T05:49:36.155Z,-4.09
2017-08-14T05:50:35.797Z,-4.09
2017-08-14T05:51:30.009Z,-4.09
2017-08-14T05:52:31.025Z,-4.09
2017-08-14T05:53:31.225Z,-4.09
2017-08-14T05:54:26.274Z,-4.09
2017-08-14T05:55:15.227Z,-4.09
2017-08-14T05:56:10.300Z,-4.09
2017-08-14T05:57:05.228Z,-4.09
2017-08-14T05:58:06.434Z,-4.09
2017-08-14T05:59:06.364Z,-4.08
2017-08-14T06:00:01.291Z,-4.08
2017-08-14T06:01:01.550Z,-4.09
2017-08-14T06:01:55.573Z,-4.09
2017-08-14T06:02:49.565Z,-4.09
2017-08-14T06:03:44.778Z,-4.09
2017-08-14T06:04:43.707Z,-4.09
2017-08-14T06:05:37.796Z,-4.09
2017-08-14T06:06:37.739Z,-4.09
2017-08-14T06:07:37.778Z,-4.09
2017-08-14T06:08:37.906Z,-4.09
2017-08-14T06:09:37.985Z,-4.09
2017-08-14T06:10:26.882Z,-4.09
2017-08-14T06:11:15.067Z,-4.09
2017-08-14T06:12:14.972Z,-4.09
2017-08-14T06:13:08.914Z,-4.10
2017-08-14T06:14:03.057Z,-4.10
2017-08-14T06:15:03.231Z,-4.10
2017-08-14T06:16:03.003Z,-4.10
2017-08-14T06:17:03.208Z,-4.10
2017-08-14T06:18:03.314Z,-4.10
2017-08-14T06:18:57.352Z,-4.10
2017-08-14T06:19:52.393Z,-4.10
2017-08-14T06:20:52.420Z,-4.10
2017-08-14T06:21:52.398Z,-4.09
2017-08-14T06:22:47.514Z,-4.10
2017-08-14T06:23:41.652Z,-4.10
2017-08-14T06:24:41.626Z,-4.11
2017-08-14T06:25:29.698Z,-4.11
2017-08-14T06:26:24.834Z,-4.10
2017-08-14T06:27:18.774Z,-4.09
2017-08-14T06:28:12.871Z,-4.10
2017-08-14T06:29:06.819Z,-4.10
2017-08-14T06:29:54.822Z,-4.09
2017-08-14T06:30:55.852Z,-4.10
2017-08-14T06:31:56.173Z,-4.10
2017-08-14T06:32:50.091Z,-4.10
2017-08-14T06:33:50.124Z,-4.10
2017-08-14T06:34:39.262Z,-4.10
2017-08-14T06:35:28.128Z,-4.11
2017-08-14T06:36:28.263Z,-4.11
2017-08-14T06:37:17.330Z,-4.10
2017-08-14T06:38:06.330Z,-4.10
2017-08-14T06:39:00.433Z,-4.10
2017-08-14T06:40:00.442Z,-4.09
2017-08-14T06:40:55.462Z,-4.09
2017-08-14T06:41:50.533Z,-4.09
2017-08-14T06:42:50.658Z,-4.08
2017-08-14T06:43:44.649Z,-4.08
2017-08-14T06:44:38.723Z,-4.08
2017-08-14T06:45:32.682Z,-4.08
2017-08-14T06:46:20.743Z,-4.08
2017-08-14T06:47:08.858Z,-4.08
2017-08-14T06:48:03.839Z,-4.09
2017-08-14T06:48:51.861Z,-4.08
2017-08-14T06:49:51.940Z,-4.09
2017-08-14T06:50:46.096Z,-4.09
2017-08-14T06:51:46.083Z,-4.09
2017-08-14T06:52:41.079Z,-4.08
2017-08-14T06:53:30.254Z,-4.07
2017-08-14T06:54:24.224Z,-4.08
2017-08-14T06:55:19.295Z,-4.07
2017-08-14T06:56:13.375Z,-4.07
2017-08-14T06:57:07.447Z,-4.07
2017-08-14T06:57:56.444Z,-4.06
2017-08-14T06:58:44.462Z,-4.06
2017-08-14T06:59:32.548Z,-4.06
2017-08-14T07:00:32.545Z,-4.06
2017-08-14T07:01:21.678Z,-4.05
2017-08-14T07:02:15.825Z,-4.05
2017-08-14T07:03:09.680Z,-4.06
2017-08-14T07:04:09.795Z,-4.06
2017-08-14T07:05:09.809Z,-4.06
2017-08-14T07:06:04.891Z,-4.05
2017-08-14T07:06:59.884Z,-4.05
2017-08-14T07:07:54.976Z,-4.05
2017-08-14T07:08:44.049Z,-4.05
2017-08-14T07:09:39.157Z,-4.04
2017-08-14T07:10:28.201Z,-4.05
2017-08-14T07:11:23.237Z,-4.05
2017-08-14T07:12:23.331Z,-4.04
2017-08-14T07:13:17.411Z,-4.04
2017-08-14T07:14:12.338Z,-4.03
2017-08-14T07:15:06.439Z,-4.03
2017-08-14T07:16:06.541Z,-4.03
2017-08-14T07:17:00.557Z,-4.03
2017-08-14T07:17:54.636Z,-4.02
2017-08-14T07:18:42.620Z,-4.03
2017-08-14T07:19:31.703Z,-4.03
2017-08-14T07:20:25.901Z,-4.04
2017-08-14T07:21:25.816Z,-4.05
2017-08-14T07:22:19.889Z,-4.04
2017-08-14T07:23:08.892Z,-4.05
2017-08-14T07:24:08.892Z,-4.06
2017-08-14T07:24:58.062Z,-4.07
2017-08-14T07:25:52.023Z,-4.07
2017-08-14T07:26:52.143Z,-4.06
2017-08-14T07:27:40.247Z,-4.06
2017-08-14T07:28:29.310Z,-4.06
2017-08-14T07:29:23.329Z,-4.05
2017-08-14T07:30:17.365Z,-4.05
2017-08-14T07:31:11.545Z,-4.05
2017-08-14T07:32:00.470Z,-4.04
2017-08-14T07:33:00.492Z,-4.04
2017-08-14T07:33:55.571Z,-4.03
2017-08-14T07:34:49.652Z,-4.03
2017-08-14T07:35:43.850Z,-4.02
2017-08-14T07:36:37.704Z,-4.02
2017-08-14T07:37:38.803Z,-2.65
2017-08-14T07:38:32.886Z,1.01
2017-08-14T07:39:20.941Z,-4.03
2017-08-14T07:40:21.034Z,-4.03
2017-08-14T07:41:10.105Z,-4.03
2017-08-14T07:41:59.065Z,-4.03
2017-08-14T07:43:00.212Z,-4.03
2017-08-14T07:43:55.217Z,-4.03
2017-08-14T07:44:50.384Z,-4.03
2017-08-14T07:45:38.315Z,-4.03
2017-08-14T07:46:33.322Z,-4.02
2017-08-14T07:47:22.502Z,-4.02
2017-08-14T07:48:16.525Z,-3.06
2017-08-14T07:49:10.542Z,-4.03
2017-08-14T07:50:04.594Z,-4.02
2017-08-14T07:50:52.680Z,-4.02
2017-08-14T07:51:46.791Z,3.46
2017-08-14T07:52:46.761Z,7.99
2017-08-14T07:53:41.803Z,-4.02
2017-08-14T07:54:35.877Z,4.87
2017-08-14T07:55:29.961Z,1.33
2017-08-14T07:56:18.085Z,-4.03
2017-08-14T07:57:06.075Z,-4.04
2017-08-14T07:58:00.104Z,-4.04
2017-08-14T07:58:48.199Z,-4.03
2017-08-14T07:59:48.318Z,-4.03
2017-08-14T08:00:43.251Z,-4.03
2017-08-14T08:01:43.331Z,-4.03
2017-08-14T08:02:37.422Z,-4.03
2017-08-14T08:03:37.453Z,-3.38
2017-08-14T08:04:26.561Z,-4.02
2017-08-14T08:05:20.600Z,-4.03
2017-08-14T08:06:21.655Z,-4.03
2017-08-14T08:07:21.698Z,-2.34
2017-08-14T08:08:09.784Z,-4.03
2017-08-14T08:09:09.891Z,-4.02
2017-08-14T08:09:58.929Z,-4.02
2017-08-14T08:10:52.961Z,-0.32
2017-08-14T08:11:48.094Z,5.83
2017-08-14T08:12:37.118Z,10.64
2017-08-14T08:13:32.098Z,-1.76
2017-08-14T08:14:26.133Z,20.05
2017-08-14T08:15:15.227Z,10.64
2017-08-14T08:16:10.305Z,-1.94
2017-08-14T08:17:04.297Z,-4.03
2017-08-14T08:17:58.445Z,-4.03
2017-08-14T08:18:58.512Z,-4.03
2017-08-14T08:19:58.497Z,-3.94
2017-08-14T08:20:52.628Z,-0.48
2017-08-14T08:21:41.600Z,2.62
2017-08-14T08:22:35.735Z,8.80
2017-08-14T08:23:24.701Z,25.54
2017-08-14T08:24:24.765Z,19.14
2017-08-14T08:25:18.867Z,14.18
2017-08-14T08:26:12.967Z,1.32
2017-08-14T08:27:00.972Z,-0.42
2017-08-14T08:27:55.053Z,1.42
2017-08-14T08:28:49.150Z,3.01
2017-08-14T08:29:44.247Z,22.33
2017-08-14T08:30:32.254Z,10.89
2017-08-14T08:31:26.244Z,14.62
2017-08-14T08:32:14.285Z,22.16
2017-08-14T08:33:15.380Z,20.70
2017-08-14T08:34:04.370Z,31.12
2017-08-14T08:34:58.529Z,26.19
2017-08-14T08:35:53.581Z,17.23
2017-08-14T08:36:42.654Z,1.20
2017-08-14T08:37:42.644Z,26.88
2017-08-14T08:38:36.823Z,20.45
2017-08-14T08:39:30.933Z,15.55
2017-08-14T08:40:25.969Z,12.07
2017-08-14T08:41:15.064Z,16.61
2017-08-14T08:42:09.046Z,15.81
2017-08-14T08:43:04.036Z,21.25
2017-08-14T08:44:04.207Z,31.00
2017-08-14T08:44:53.264Z,24.05
2017-08-14T08:45:41.186Z,12.39
2017-08-14T08:46:41.333Z,4.01
2017-08-14T08:47:30.319Z,6.91
2017-08-14T08:48:24.427Z,7.78
2017-08-14T08:49:30.526Z,14.54
2017-08-14T08:50:24.548Z,17.15
2017-08-14T08:51:13.629Z,32.59
2017-08-14T08:52:01.842Z,32.90
2017-08-14T08:53:01.694Z,39.76
2017-08-14T08:53:56.741Z,40.33
2017-08-14T08:54:56.829Z,37.58
2017-08-14T08:55:50.944Z,35.72
2017-08-14T08:56:50.915Z,41.00
2017-08-14T08:57:38.995Z,35.49
2017-08-14T08:58:33.065Z,38.98
2017-08-14T08:59:27.124Z,39.28
2017-08-14T09:00:15.186Z,34.43
2017-08-14T09:01:15.283Z,30.46
2017-08-14T09:02:09.296Z,29.57
2017-08-14T09:02:58.397Z,35.51
2017-08-14T09:03:46.425Z,40.11
2017-08-14T09:04:35.498Z,45.23
2017-08-14T09:05:24.621Z,41.83
2017-08-14T09:06:24.695Z,35.77
2017-08-14T09:07:19.740Z,42.71
2017-08-14T09:08:13.878Z,42.13
2017-08-14T09:09:13.864Z,39.77
2017-08-14T09:10:07.893Z,38.07
2017-08-14T09:10:56.958Z,36.10
2017-08-14T09:11:45.051Z,42.46
2017-08-14T09:12:45.111Z,42.56
2017-08-14T09:13:34.207Z,38.32
2017-08-14T09:14:23.239Z,36.50
2017-08-14T09:15:17.306Z,35.93
2017-08-14T09:16:11.317Z,18.95
2017-08-14T09:17:00.442Z,17.39
2017-08-14T09:18:06.616Z,11.07
2017-08-14T09:19:01.487Z,21.85
2017-08-14T09:19:55.531Z,27.91
2017-08-14T09:20:49.647Z,24.04
2017-08-14T09:21:43.667Z,31.23
2017-08-14T09:22:44.769Z,22.55
2017-08-14T09:23:33.819Z,24.40
2017-08-14T09:24:28.817Z,36.53
2017-08-14T09:25:23.004Z,39.62
2017-08-14T09:26:22.953Z,41.73
2017-08-14T09:27:17.105Z,43.62
2017-08-14T09:28:06.087Z,39.05
2017-08-14T09:28:55.203Z,35.20
2017-08-14T09:29:49.327Z,40.06
2017-08-14T09:30:43.328Z,38.65
2017-08-14T09:31:37.405Z,30.78
2017-08-14T09:32:26.504Z,31.90
2017-08-14T09:33:20.525Z,28.31
2017-08-14T09:34:14.566Z,23.70
2017-08-14T09:35:03.644Z,22.20
2017-08-14T09:35:57.647Z,39.55
2017-08-14T09:36:46.756Z,40.23
2017-08-14T09:37:40.790Z,38.44
2017-08-14T09:38:35.886Z,37.90
2017-08-14T09:39:29.920Z,33.15
2017-08-14T09:40:29.955Z,42.25
2017-08-14T09:41:19.023Z,39.89
2017-08-14T09:42:13.129Z,38.34
2017-08-14T09:43:13.257Z,34.11
2017-08-14T09:44:07.244Z,34.08
2017-08-14T09:45:07.350Z,32.86
2017-08-14T09:46:01.388Z,32.02
2017-08-14T09:46:55.382Z,39.06
2017-08-14T09:47:44.481Z,35.63
2017-08-14T09:48:39.527Z,38.26
2017-08-14T09:49:33.644Z,39.83
2017-08-14T09:50:33.660Z,37.44
2017-08-14T09:51:27.744Z,38.38
2017-08-14T09:52:27.730Z,31.56
2017-08-14T09:53:21.815Z,38.88
2017-08-14T09:54:16.888Z,36.60
2017-08-14T09:55:05.045Z,36.45
2017-08-14T09:55:53.073Z,31.11
2017-08-14T09:56:42.124Z,32.62
2017-08-14T09:57:42.156Z,31.38
2017-08-14T09:58:31.236Z,40.05
2017-08-14T09:59:25.324Z,37.04
2017-08-14T10:00:20.429Z,33.81
2017-08-14T10:01:14.461Z,31.94
2017-08-14T10:02:08.557Z,37.95
2017-08-14T10:03:02.511Z,43.45
2017-08-14T10:03:57.658Z,41.50
2017-08-14T10:04:51.677Z,47.76
2017-08-14T10:05:51.816Z,47.47
2017-08-14T10:06:45.849Z,46.35
2017-08-14T10:07:34.789Z,46.30
2017-08-14T10:08:35.012Z,44.58
2017-08-14T10:09:28.975Z,44.14
2017-08-14T10:10:18.059Z,42.53
2017-08-14T10:11:12.228Z,39.49
2017-08-14T10:12:01.217Z,45.39
2017-08-14T10:13:07.173Z,43.42
2017-08-14T10:14:01.294Z,37.84
2017-08-14T10:14:49.389Z,43.40
2017-08-14T10:15:43.438Z,44.47
2017-08-14T10:16:43.523Z,43.69
2017-08-14T10:17:38.551Z,46.68
2017-08-14T10:18:32.665Z,46.58
2017-08-14T10:19:26.644Z,42.70
2017-08-14T10:20:15.836Z,44.55
2017-08-14T10:21:04.888Z,44.76
2017-08-14T10:21:58.874Z,43.58
2017-08-14T10:22:58.963Z,43.78
2017-08-14T10:23:54.087Z,42.91
2017-08-14T10:24:48.001Z,44.15
2017-08-14T10:25:42.181Z,39.04
2017-08-14T10:26:36.213Z,41.90
2017-08-14T10:27:36.351Z,43.11
2017-08-14T10:28:30.353Z,42.39
2017-08-14T10:29:30.356Z,46.29
2017-08-14T10:30:19.448Z,46.60
2017-08-14T10:31:14.491Z,45.28
2017-08-14T10:32:09.526Z,45.22
2017-08-14T10:33:09.592Z,42.48
2017-08-14T10:34:03.609Z,39.33
2017-08-14T10:34:57.718Z,45.93
2017-08-14T10:35:51.820Z,45.48
2017-08-14T10:36:51.901Z,48.26
2017-08-14T10:37:46.982Z,47.71
2017-08-14T10:38:41.029Z,47.17
2017-08-14T10:39:36.127Z,46.95
2017-08-14T10:40:36.179Z,44.45
2017-08-14T10:41:25.116Z,46.30
2017-08-14T10:42:20.317Z,47.12
2017-08-14T10:43:20.311Z,46.73
2017-08-14T10:44:14.420Z,47.09
2017-08-14T10:45:08.501Z,46.11
2017-08-14T10:46:03.524Z,43.09
2017-08-14T10:46:57.603Z,46.96
2017-08-14T10:47:57.706Z,45.81
2017-08-14T10:48:52.733Z,47.98
2017-08-14T10:49:46.934Z,48.18
2017-08-14T10:50:40.782Z,47.61
2017-08-14T10:51:34.819Z,46.25
2017-08-14T10:52:28.858Z,46.26
2017-08-14T10:53:17.041Z,47.30
2017-08-14T10:54:11.026Z,47.30
2017-08-14T10:55:00.482Z,43.41
2017-08-14T10:55:54.270Z,46.59
2017-08-14T10:56:54.266Z,45.85
2017-08-14T10:57:43.274Z,46.85
2017-08-14T10:58:37.437Z,47.61
2017-08-14T10:59:31.390Z,47.85
2017-08-14T11:00:25.469Z,47.37
2017-08-14T11:01:25.562Z,47.71
2017-08-14T11:02:13.613Z,48.00
2017-08-14T11:03:08.617Z,48.00
2017-08-14T11:03:57.780Z,46.92
2017-08-14T11:04:57.837Z,47.45
2017-08-14T11:05:46.849Z,48.77
2017-08-14T11:06:35.944Z,48.05
2017-08-14T11:07:31.086Z,48.79
2017-08-14T11:08:19.189Z,47.45
2017-08-14T11:09:08.141Z,47.48
2017-08-14T11:09:57.222Z,47.27
2017-08-14T11:10:51.325Z,47.58
2017-08-14T11:11:51.368Z,47.34
2017-08-14T11:12:45.440Z,47.51
2017-08-14T11:13:40.712Z,47.93
2017-08-14T11:14:35.601Z,46.73
2017-08-14T11:15:35.668Z,47.42
2017-08-14T11:16:29.649Z,47.84
2017-08-14T11:17:24.690Z,47.79
2017-08-14T11:18:19.830Z,49.09
2017-08-14T11:19:08.852Z,48.25
2017-08-14T11:20:03.808Z,48.81
2017-08-14T11:21:04.030Z,48.75
2017-08-14T11:21:58.055Z,48.04
2017-08-14T11:22:53.100Z,48.19
2017-08-14T11:23:42.122Z,47.38
2017-08-14T11:24:31.266Z,47.48
2017-08-14T11:25:20.347Z,47.06
2017-08-14T11:26:20.384Z,47.57
2017-08-14T11:27:20.469Z,48.70
2017-08-14T11:28:15.589Z,48.56
2017-08-14T11:29:03.603Z,48.56
2017-08-14T11:29:52.650Z,48.65
2017-08-14T11:30:46.737Z,48.92
2017-08-14T11:31:41.737Z,49.11
2017-08-14T11:32:35.853Z,49.22
2017-08-14T11:33:30.899Z,48.71
2017-08-14T11:34:31.982Z,48.67
2017-08-14T11:35:26.022Z,47.44
2017-08-14T11:36:20.021Z,48.03
2017-08-14T11:37:14.203Z,47.79
2017-08-14T11:38:14.382Z,46.11
2017-08-14T11:39:20.358Z,44.71
2017-08-14T11:40:09.470Z,44.60
2017-08-14T11:40:58.516Z,44.12
2017-08-14T11:41:53.561Z,40.36
2017-08-14T11:42:47.763Z,41.64
2017-08-14T11:43:42.755Z,43.92
2017-08-14T11:44:42.832Z,44.56
2017-08-14T11:45:36.970Z,46.08
2017-08-14T11:46:36.982Z,46.94
2017-08-14T11:47:32.101Z,44.32
2017-08-14T11:48:26.242Z,46.49